createdAt,value
2022-11-30T00:01:52.857Z,67.82
2022-11-30T00:04:20.678Z,67.72
2022-11-30T00:06:48.632Z,67.89
2022-11-30T00:09:16.635Z,68.07
2022-11-30T00:11:45.800Z,67.71
2022-11-30T00:14:13.651Z,68.11
2022-11-30T00:16:41.715Z,68.44
2022-11-30T00:19:09.612Z,67.82
2022-11-30T00:21:37.469Z,68.90
2022-11-30T00:24:06.785Z,68.12
2022-11-30T00:26:34.802Z,68.60
2022-11-30T00:29:04.208Z,68.31
2022-11-30T00:31:32.240Z,68.38
2022-11-30T00:34:00.227Z,68.20
2022-11-30T00:36:28.128Z,68.31
2022-11-30T00:38:56.669Z,67.96
2022-11-30T00:41:24.506Z,68.79
2022-11-30T00:43:52.339Z,68.16
2022-11-30T00:46:21.559Z,68.64
2022-11-30T00:48:49.979Z,68.46
2022-11-30T00:51:18.499Z,68.81
2022-11-30T00:53:47.666Z,68.74
2022-11-30T00:56:15.684Z,68.87
2022-11-30T00:58:43.620Z,68.42
2022-11-30T01:01:11.560Z,68.30
2022-11-30T01:03:40.868Z,69.08
2022-11-30T01:06:10.650Z,68.86
2022-11-30T01:08:38.950Z,69.33
2022-11-30T01:11:09.529Z,69.36
2022-11-30T01:13:37.437Z,69.43
2022-11-30T01:16:10.719Z,69.43
2022-11-30T01:18:40.329Z,69.17
2022-11-30T01:21:09.488Z,69.19
2022-11-30T01:23:37.532Z,68.75
2022-11-30T01:26:05.504Z,68.86
2022-11-30T01:28:33.636Z,69.46
2022-11-30T01:31:03.114Z,68.71
2022-11-30T01:33:31.377Z,69.40
2022-11-30T01:36:02.727Z,68.66
2022-11-30T01:38:33.939Z,68.71
2022-11-30T01:41:01.999Z,69.03
2022-11-30T01:43:43.738Z,69.31
2022-11-30T01:46:33.231Z,69.59
2022-11-30T01:49:06.069Z,70.18
2022-11-30T01:51:39.201Z,69.74
2022-11-30T01:54:11.531Z,69.57
2022-11-30T01:56:44.193Z,69.70
2022-11-30T01:59:12.985Z,69.85
2022-11-30T02:01:41.105Z,69.50
2022-11-30T02:04:14.691Z,69.97
2022-11-30T02:06:45.123Z,69.34
2022-11-30T02:09:15.060Z,69.26
2022-11-30T02:11:43.316Z,69.26
2022-11-30T02:14:24.667Z,69.35
2022-11-30T02:17:02.189Z,69.82
2022-11-30T02:19:59.248Z,69.86
2022-11-30T02:22:47.235Z,70.53
2022-11-30T02:25:26.618Z,70.29
2022-11-30T02:28:14.095Z,70.38
2022-11-30T02:30:48.022Z,69.99
2022-11-30T02:33:19.260Z,70.29
2022-11-30T02:35:54.676Z,70.30
2022-11-30T02:38:25.169Z,70.95
2022-11-30T02:40:53.343Z,70.77
2022-11-30T02:43:23.446Z,70.35
2022-11-30T02:46:00.533Z,69.91
2022-11-30T02:48:33.562Z,70.35
2022-11-30T02:51:05.583Z,69.98
2022-11-30T02:53:33.469Z,70.17
2022-11-30T02:56:01.507Z,70.18
2022-11-30T02:58:29.633Z,70.25
2022-11-30T03:00:58.845Z,70.35
2022-11-30T03:03:26.646Z,70.23
2022-11-30T03:05:54.544Z,69.87
2022-11-30T03:08:22.431Z,69.74
2022-11-30T03:10:50.577Z,70.22
2022-11-30T03:13:18.552Z,70.59
2022-11-30T03:15:46.427Z,70.30
2022-11-30T03:18:15.726Z,70.21
2022-11-30T03:20:44.007Z,69.72
2022-11-30T03:23:11.984Z,69.91
2022-11-30T03:25:39.989Z,70.21
2022-11-30T03:28:07.886Z,70.04
2022-11-30T03:30:35.695Z,70.31
2022-11-30T03:33:03.687Z,69.82
2022-11-30T03:35:32.928Z,70.03
2022-11-30T03:38:00.821Z,70.31
2022-11-30T03:40:28.607Z,70.34
2022-11-30T03:42:56.487Z,70.71
2022-11-30T03:45:24.367Z,71.18
2022-11-30T03:47:54.365Z,70.34
2022-11-30T03:50:22.796Z,70.41
2022-11-30T03:52:52.091Z,70.73
2022-11-30T03:55:19.938Z,71.15
2022-11-30T03:57:47.826Z,70.86
2022-11-30T04:00:16.810Z,71.01
2022-11-30T04:02:45.213Z,71.04
2022-11-30T04:05:13.547Z,70.67
2022-11-30T04:07:41.492Z,70.79
2022-11-30T04:10:12.229Z,70.39
2022-11-30T04:12:40.138Z,70.66
2022-11-30T04:15:09.507Z,70.48
2022-11-30T04:17:37.371Z,70.12
2022-11-30T04:20:06.230Z,69.67
2022-11-30T04:22:34.751Z,69.69
2022-11-30T04:25:02.542Z,69.78
2022-11-30T04:27:31.779Z,69.46
2022-11-30T04:29:59.733Z,69.36
2022-11-30T04:32:27.639Z,68.78
2022-11-30T04:34:55.552Z,69.17
2022-11-30T04:37:23.440Z,69.10
2022-11-30T04:39:51.355Z,69.17
2022-11-30T04:42:19.301Z,68.73
2022-11-30T04:44:51.316Z,68.95
2022-11-30T04:47:19.249Z,68.98
2022-11-30T04:49:47.042Z,68.80
2022-11-30T04:52:14.925Z,69.26
2022-11-30T04:54:42.826Z,69.05
2022-11-30T04:57:10.694Z,68.61
2022-11-30T04:59:38.487Z,68.87
2022-11-30T05:02:07.811Z,68.74
2022-11-30T05:04:35.691Z,69.53
2022-11-30T05:07:03.574Z,69.01
2022-11-30T05:09:31.854Z,69.18
2022-11-30T05:11:59.808Z,69.10
2022-11-30T05:14:27.629Z,69.04
2022-11-30T05:16:55.631Z,69.62
2022-11-30T05:19:24.826Z,68.84
2022-11-30T05:21:53.045Z,69.03
2022-11-30T05:24:20.878Z,69.18
2022-11-30T05:26:48.797Z,69.01
2022-11-30T05:29:16.703Z,69.42
2022-11-30T05:31:44.700Z,69.62
2022-11-30T05:34:12.517Z,68.99
2022-11-30T05:36:41.698Z,68.75
2022-11-30T05:39:09.676Z,69.27
2022-11-30T05:41:37.630Z,69.37
2022-11-30T05:44:06.397Z,69.21
2022-11-30T05:46:37.124Z,68.68
2022-11-30T05:49:08.886Z,68.86
2022-11-30T05:51:36.695Z,68.68
2022-11-30T05:54:06.150Z,68.75
2022-11-30T05:56:34.035Z,68.69
2022-11-30T05:59:01.884Z,68.66
2022-11-30T06:01:30.562Z,68.19
2022-11-30T06:03:58.403Z,68.84
2022-11-30T06:06:26.372Z,68.46
2022-11-30T06:08:55.274Z,68.21
2022-11-30T06:11:24.477Z,68.36
2022-11-30T06:13:52.327Z,68.19
2022-11-30T06:16:20.370Z,67.61
2022-11-30T06:18:48.311Z,67.78
2022-11-30T06:21:21.000Z,67.88
2022-11-30T06:23:51.925Z,67.87
2022-11-30T06:26:19.778Z,67.94
2022-11-30T06:28:49.243Z,67.98
2022-11-30T06:31:17.861Z,68.20
2022-11-30T06:33:45.765Z,68.11
2022-11-30T06:36:13.640Z,67.99
2022-11-30T06:38:41.769Z,68.03
2022-11-30T06:41:12.512Z,67.70
2022-11-30T06:43:40.895Z,67.98
2022-11-30T06:46:11.371Z,67.72
2022-11-30T06:48:39.730Z,67.66
2022-11-30T06:51:08.647Z,67.58
2022-11-30T06:53:36.863Z,67.87
2022-11-30T06:56:09.911Z,67.06
2022-11-30T06:58:39.092Z,67.29
2022-11-30T07:01:08.285Z,67.54
2022-11-30T07:03:37.939Z,67.57
2022-11-30T07:06:09.112Z,67.33
2022-11-30T07:08:36.981Z,67.46
2022-11-30T07:11:05.351Z,67.79
2022-11-30T07:13:33.249Z,67.71
2022-11-30T07:16:04.548Z,67.91
2022-11-30T07:18:32.849Z,67.33
2022-11-30T07:21:03.672Z,67.08
2022-11-30T07:23:55.939Z,67.38
2022-11-30T07:26:25.588Z,67.09
2022-11-30T07:28:58.142Z,67.06
2022-11-30T07:31:28.213Z,66.92
2022-11-30T07:33:57.236Z,66.74
2022-11-30T07:36:29.577Z,66.34
2022-11-30T07:38:57.528Z,66.55
2022-11-30T07:41:25.738Z,66.62
2022-11-30T07:43:53.748Z,66.24
2022-11-30T07:46:21.938Z,66.37
2022-11-30T07:48:49.787Z,66.34
2022-11-30T07:51:19.960Z,66.18
2022-11-30T07:53:49.844Z,66.38
2022-11-30T07:56:19.970Z,65.78
2022-11-30T07:58:48.710Z,65.73
2022-11-30T08:01:18.269Z,65.86
2022-11-30T08:03:46.440Z,65.45
2022-11-30T08:06:16.480Z,65.70
2022-11-30T08:08:45.729Z,65.98
2022-11-30T08:11:16.738Z,65.94
2022-11-30T08:13:45.361Z,66.01
2022-11-30T08:16:15.588Z,65.85
2022-11-30T08:18:44.166Z,66.10
2022-11-30T08:21:14.303Z,65.66
2022-11-30T08:23:43.719Z,65.79
2022-11-30T08:26:13.449Z,65.69
2022-11-30T08:28:43.818Z,65.45
2022-11-30T08:31:14.056Z,65.21
2022-11-30T08:33:42.077Z,64.90
2022-11-30T08:36:11.957Z,64.74
2022-11-30T08:38:41.203Z,65.03
2022-11-30T08:41:11.745Z,65.23
2022-11-30T08:43:44.131Z,65.28
2022-11-30T08:46:49.056Z,65.22
2022-11-30T08:49:20.381Z,65.41
2022-11-30T08:54:39.036Z,65.30
2022-11-30T08:57:06.980Z,65.03
2022-11-30T08:59:36.227Z,64.52
2022-11-30T09:02:04.603Z,64.19
2022-11-30T09:04:32.503Z,63.89
2022-11-30T09:07:01.002Z,63.75
2022-11-30T09:09:29.109Z,63.59
2022-11-30T09:11:57.178Z,63.71
2022-11-30T09:14:24.992Z,63.55
2022-11-30T09:16:56.185Z,62.92
2022-11-30T09:19:24.054Z,63.36
2022-11-30T09:21:52.665Z,62.84
2022-11-30T09:24:21.359Z,62.94
2022-11-30T09:26:49.197Z,62.80
2022-11-30T09:29:17.218Z,61.78
2022-11-30T09:31:45.054Z,62.30
2022-11-30T09:34:14.295Z,61.84
2022-11-30T09:36:42.223Z,62.43
2022-11-30T09:39:12.693Z,61.79
2022-11-30T09:42:04.998Z,61.61
2022-11-30T09:44:44.487Z,61.56
2022-11-30T09:47:32.630Z,62.16
2022-11-30T09:50:06.019Z,61.90
2022-11-30T09:52:36.880Z,61.92
2022-11-30T09:55:09.938Z,62.44
2022-11-30T09:57:46.979Z,61.75
2022-11-30T10:00:19.095Z,61.52
2022-11-30T10:02:47.204Z,61.90
2022-11-30T10:05:18.461Z,61.81
2022-11-30T10:08:01.861Z,62.18
2022-11-30T10:10:37.262Z,61.35
2022-11-30T10:13:16.087Z,61.05
2022-11-30T10:15:57.414Z,61.41
2022-11-30T10:18:37.883Z,60.76
2022-11-30T10:21:18.377Z,61.06
2022-11-30T10:24:02.747Z,60.30
2022-11-30T10:26:34.614Z,60.70
2022-11-30T10:29:13.916Z,60.11
2022-11-30T10:31:43.913Z,60.34
2022-11-30T10:34:20.281Z,60.81
2022-11-30T10:36:54.753Z,59.72
2022-11-30T10:39:29.754Z,59.56
2022-11-30T10:42:02.501Z,59.70
2022-11-30T10:44:35.449Z,59.02
2022-11-30T10:47:11.250Z,58.93
2022-11-30T10:49:43.626Z,59.93
2022-11-30T10:52:19.793Z,59.09
2022-11-30T10:54:56.854Z,59.99
2022-11-30T10:57:32.268Z,58.89
2022-11-30T11:00:03.495Z,59.54
2022-11-30T11:02:42.961Z,58.90
2022-11-30T11:05:20.095Z,58.74
2022-11-30T11:08:04.723Z,59.67
2022-11-30T11:10:36.767Z,60.69
2022-11-30T11:13:05.319Z,61.02
2022-11-30T11:15:35.177Z,60.43
2022-11-30T11:18:22.755Z,60.77
2022-11-30T11:21:05.931Z,60.82
2022-11-30T11:23:38.851Z,61.34
2022-11-30T11:26:08.552Z,60.96
2022-11-30T11:28:39.324Z,60.77
2022-11-30T11:31:19.419Z,59.67
2022-11-30T11:33:55.095Z,60.24
2022-11-30T11:36:28.544Z,59.40
2022-11-30T11:38:58.780Z,58.88
2022-11-30T11:41:29.330Z,58.80
2022-11-30T11:44:02.240Z,59.23
2022-11-30T11:46:31.765Z,59.05
2022-11-30T11:49:02.594Z,58.72
2022-11-30T11:51:32.866Z,58.67
2022-11-30T11:54:06.454Z,58.37
2022-11-30T11:56:37.057Z,57.49
2022-11-30T11:59:14.048Z,57.74
2022-11-30T12:01:51.140Z,57.99
2022-11-30T12:04:37.298Z,58.13
2022-11-30T12:07:18.158Z,58.41
2022-11-30T12:09:56.556Z,58.31
2022-11-30T12:12:24.477Z,59.06
2022-11-30T12:14:52.384Z,58.58
2022-11-30T12:17:33.331Z,59.22
2022-11-30T12:20:14.089Z,58.62
2022-11-30T12:22:54.259Z,59.85
2022-11-30T12:25:27.595Z,59.98
2022-11-30T12:28:06.646Z,59.24
2022-11-30T12:30:47.434Z,60.14
2022-11-30T12:33:26.318Z,60.12
2022-11-30T12:36:02.706Z,60.70
2022-11-30T12:38:40.185Z,61.07
2022-11-30T12:41:28.431Z,61.15
2022-11-30T12:44:11.696Z,60.54
2022-11-30T12:46:48.321Z,60.49
2022-11-30T12:49:34.983Z,61.44
2022-11-30T12:52:15.933Z,61.15
2022-11-30T12:54:55.443Z,60.77
2022-11-30T12:57:31.526Z,61.30
2022-11-30T13:00:07.491Z,60.20
2022-11-30T13:03:03.755Z,61.14
2022-11-30T13:05:36.834Z,60.54
2022-11-30T13:08:12.221Z,61.48
2022-11-30T13:10:45.468Z,61.44
2022-11-30T13:13:27.919Z,61.70
2022-11-30T13:15:57.473Z,62.51
2022-11-30T13:18:26.120Z,62.22
2022-11-30T13:21:04.855Z,62.58
2022-11-30T13:23:38.215Z,62.81
2022-11-30T13:26:15.819Z,63.03
2022-11-30T13:29:07.815Z,62.80
2022-11-30T13:31:40.768Z,63.24
2022-11-30T13:34:24.361Z,62.78
2022-11-30T13:36:52.720Z,63.41
2022-11-30T13:39:24.331Z,63.12
2022-11-30T13:42:08.965Z,63.83
2022-11-30T13:44:39.788Z,63.73
2022-11-30T13:47:18.948Z,63.33
2022-11-30T13:49:47.552Z,63.30
2022-11-30T13:52:24.455Z,63.29
2022-11-30T13:54:55.620Z,63.82
2022-11-30T13:58:00.652Z,63.59
2022-11-30T14:01:02.039Z,63.06
2022-11-30T14:03:31.421Z,63.59
2022-11-30T14:06:00.398Z,63.04
2022-11-30T14:08:34.247Z,63.31
2022-11-30T14:11:39.470Z,63.58
2022-11-30T14:14:46.148Z,64.15
2022-11-30T14:17:20.104Z,63.87
2022-11-30T14:19:50.645Z,63.97
2022-11-30T14:22:19.366Z,64.16
2022-11-30T14:24:49.629Z,64.37
2022-11-30T14:27:21.255Z,63.87
2022-11-30T14:29:54.224Z,64.26
2022-11-30T14:32:35.007Z,64.98
2022-11-30T14:35:09.064Z,64.30
2022-11-30T14:37:44.569Z,64.46
2022-11-30T14:40:19.122Z,64.77
2022-11-30T14:42:50.574Z,65.16
2022-11-30T14:45:25.329Z,65.37
2022-11-30T14:48:05.494Z,64.55
2022-11-30T14:50:33.617Z,64.75
2022-11-30T14:53:11.800Z,65.28
2022-11-30T14:55:46.733Z,65.26
2022-11-30T14:58:22.388Z,65.42
2022-11-30T15:00:51.517Z,65.72
2022-11-30T15:03:25.998Z,66.86
2022-11-30T15:05:56.106Z,66.33
2022-11-30T15:08:26.809Z,67.23
2022-11-30T15:10:56.584Z,67.12
2022-11-30T15:13:24.713Z,67.87
2022-11-30T15:15:55.084Z,67.84
2022-11-30T15:18:25.460Z,68.17
2022-11-30T15:20:57.427Z,68.48
2022-11-30T15:23:25.393Z,67.70
2022-11-30T15:25:57.628Z,68.03
2022-11-30T15:28:32.262Z,67.71
2022-11-30T15:31:05.184Z,68.44
2022-11-30T15:33:41.159Z,68.51
2022-11-30T15:36:27.805Z,68.10
2022-11-30T15:38:57.976Z,68.49
2022-11-30T15:41:26.824Z,68.25
2022-11-30T15:43:56.506Z,68.35
2022-11-30T15:46:33.511Z,68.89
2022-11-30T15:49:24.495Z,69.18
2022-11-30T15:52:04.219Z,68.53
2022-11-30T15:54:48.362Z,68.60
2022-11-30T15:57:16.889Z,68.92
2022-11-30T15:59:45.197Z,68.54
2022-11-30T16:02:28.750Z,68.92
2022-11-30T16:05:24.036Z,68.88
2022-11-30T16:07:55.415Z,68.78
2022-11-30T16:10:25.826Z,69.06
2022-11-30T16:12:55.530Z,68.65
2022-11-30T16:15:25.605Z,69.17
2022-11-30T16:17:54.796Z,68.86
2022-11-30T16:20:25.032Z,69.67
2022-11-30T16:22:52.950Z,69.31
2022-11-30T16:25:23.272Z,69.05
2022-11-30T16:27:51.822Z,69.45
2022-11-30T16:30:21.608Z,69.55
2022-11-30T16:32:50.088Z,69.71
2022-11-30T16:35:25.247Z,70.13
2022-11-30T16:37:53.238Z,69.96
2022-11-30T16:40:21.367Z,70.31
2022-11-30T16:42:50.156Z,70.80
2022-11-30T16:45:21.242Z,70.69
2022-11-30T16:47:49.058Z,71.24
2022-11-30T16:50:17.178Z,70.83
2022-11-30T16:52:47.105Z,71.02
2022-11-30T16:55:16.943Z,70.74
2022-11-30T16:57:45.103Z,70.79
2022-11-30T17:00:15.938Z,70.70
2022-11-30T17:02:46.928Z,70.77
2022-11-30T17:05:16.211Z,71.36
2022-11-30T17:07:44.603Z,70.71
2022-11-30T17:10:14.108Z,70.87
2022-11-30T17:12:42.057Z,71.13
2022-11-30T17:15:15.401Z,70.96
2022-11-30T17:17:43.481Z,71.28
2022-11-30T17:20:12.923Z,70.97
2022-11-30T17:22:41.005Z,70.82
2022-11-30T17:25:14.392Z,70.83
2022-11-30T17:27:44.180Z,70.93
2022-11-30T17:30:13.765Z,71.35
2022-11-30T17:32:41.648Z,70.87
2022-11-30T17:35:10.248Z,70.81
2022-11-30T17:37:38.107Z,70.52
2022-11-30T17:40:08.395Z,70.77
2022-11-30T17:42:37.391Z,70.57
2022-11-30T17:45:07.563Z,70.58
2022-11-30T17:47:35.511Z,70.64
2022-11-30T17:50:03.629Z,70.80
2022-11-30T17:52:31.552Z,70.31
2022-11-30T17:54:59.470Z,70.32
2022-11-30T17:57:27.334Z,70.50
2022-11-30T17:59:55.308Z,70.83
2022-11-30T18:02:24.627Z,71.01
2022-11-30T18:04:52.680Z,70.18
2022-11-30T18:07:21.116Z,71.08
2022-11-30T18:09:49.091Z,71.30
2022-11-30T18:12:17.048Z,70.80
2022-11-30T18:14:44.928Z,70.87
2022-11-30T18:17:12.778Z,71.00
2022-11-30T18:19:41.942Z,71.58
2022-11-30T18:22:09.737Z,71.09
2022-11-30T18:24:37.524Z,71.40
2022-11-30T18:27:05.544Z,70.66
2022-11-30T18:29:33.434Z,71.07
2022-11-30T18:32:01.421Z,71.10
2022-11-30T18:34:29.452Z,71.44
2022-11-30T18:36:58.716Z,71.09
2022-11-30T18:39:26.621Z,71.57
2022-11-30T18:41:54.491Z,71.34
2022-11-30T18:44:22.440Z,70.87
2022-11-30T18:46:50.288Z,70.98
2022-11-30T18:49:20.794Z,70.71
2022-11-30T18:51:49.070Z,71.42
2022-11-30T18:54:19.167Z,71.26
2022-11-30T18:56:47.048Z,70.84
2022-11-30T18:59:15.969Z,71.41
2022-11-30T19:01:43.847Z,71.18
2022-11-30T19:04:12.470Z,71.14
2022-11-30T19:06:42.430Z,71.78
2022-11-30T19:09:12.982Z,71.37
2022-11-30T19:11:44.052Z,71.35
2022-11-30T19:14:14.124Z,70.69
2022-11-30T19:16:42.063Z,70.80
2022-11-30T19:19:13.803Z,70.96
2022-11-30T19:21:44.082Z,71.06
2022-11-30T19:24:12.265Z,71.35
2022-11-30T19:26:40.650Z,70.95
2022-11-30T19:29:12.045Z,71.14
2022-11-30T19:31:40.086Z,71.24
2022-11-30T19:34:12.473Z,70.77
2022-11-30T19:36:41.226Z,70.68
2022-11-30T19:39:10.618Z,71.10
2022-11-30T19:41:38.532Z,71.25
2022-11-30T19:44:06.409Z,71.31
2022-11-30T19:46:35.691Z,71.93
2022-11-30T19:49:03.849Z,71.75
2022-11-30T19:51:32.653Z,71.76
2022-11-30T19:54:01.993Z,71.25
2022-11-30T19:56:35.763Z,71.41
2022-11-30T19:59:05.713Z,71.89
2022-11-30T20:01:35.810Z,72.38
2022-11-30T20:04:04.338Z,72.10
2022-11-30T20:06:33.945Z,71.93
2022-11-30T20:09:01.957Z,72.29
2022-11-30T20:11:29.984Z,72.03
2022-11-30T20:13:58.411Z,71.96
2022-11-30T20:16:26.319Z,71.86
2022-11-30T20:18:57.311Z,71.50
2022-11-30T20:21:27.346Z,71.63
2022-11-30T20:23:58.035Z,71.65
2022-11-30T20:26:29.788Z,71.75
2022-11-30T20:28:59.737Z,72.22
2022-11-30T20:31:29.281Z,72.54
2022-11-30T20:33:59.492Z,72.61
2022-11-30T20:36:27.446Z,72.50
2022-11-30T20:38:55.537Z,72.36
2022-11-30T20:41:24.995Z,71.71
2022-11-30T20:43:53.263Z,71.65
2022-11-30T20:46:22.662Z,71.64
2022-11-30T20:48:50.741Z,71.06
2022-11-30T20:51:30.805Z,71.22
2022-11-30T20:54:00.665Z,71.57
2022-11-30T20:56:28.668Z,71.71
2022-11-30T20:58:56.967Z,71.20
2022-11-30T21:01:24.817Z,71.49
2022-11-30T21:03:53.715Z,71.34
2022-11-30T21:06:22.912Z,71.44
2022-11-30T21:08:50.847Z,71.01
2022-11-30T21:11:21.402Z,70.75
2022-11-30T21:13:53.774Z,71.25
2022-11-30T21:16:28.231Z,70.94
2022-11-30T21:18:58.398Z,71.01
2022-11-30T21:21:30.571Z,71.14
2022-11-30T21:24:00.672Z,71.19
2022-11-30T21:26:30.816Z,71.48
2022-11-30T21:29:01.690Z,71.36
2022-11-30T21:31:30.247Z,71.80
2022-11-30T21:34:02.700Z,71.40
2022-11-30T21:36:32.072Z,71.40
2022-11-30T21:39:05.523Z,71.28
2022-11-30T21:41:35.349Z,71.17
2022-11-30T21:44:07.487Z,71.24
2022-11-30T21:46:35.681Z,71.71
2022-11-30T21:49:04.051Z,71.79
2022-11-30T21:51:33.284Z,71.85
2022-11-30T21:54:02.962Z,71.88
2022-11-30T21:56:32.560Z,71.58
2022-11-30T21:59:00.786Z,71.76
2022-11-30T22:01:30.321Z,71.66
2022-11-30T22:03:59.071Z,71.89
2022-11-30T22:06:28.544Z,72.01
2022-11-30T22:09:02.754Z,71.45
2022-11-30T22:11:31.748Z,71.83
2022-11-30T22:13:59.679Z,72.20
2022-11-30T22:16:35.272Z,72.40
2022-11-30T22:19:04.947Z,72.16
2022-11-30T22:21:33.367Z,72.08
2022-11-30T22:24:04.743Z,71.78
2022-11-30T22:26:33.781Z,71.69
2022-11-30T22:29:02.970Z,71.66
2022-11-30T22:31:32.361Z,71.83
2022-11-30T22:34:00.311Z,71.23
2022-11-30T22:36:29.875Z,71.27
2022-11-30T22:38:59.675Z,71.28
2022-11-30T22:41:30.810Z,71.35
2022-11-30T22:43:59.701Z,71.08
2022-11-30T22:46:29.276Z,71.03
2022-11-30T22:48:59.850Z,70.84
2022-11-30T22:51:29.979Z,70.66
2022-11-30T22:53:58.979Z,70.68
2022-11-30T22:56:29.732Z,70.41
2022-11-30T22:59:00.618Z,70.83
2022-11-30T23:01:30.604Z,70.99
2022-11-30T23:04:03.228Z,70.96
2022-11-30T23:06:31.161Z,70.96
2022-11-30T23:09:00.580Z,71.11
2022-11-30T23:11:30.948Z,71.52
2022-11-30T23:13:58.993Z,70.87
2022-11-30T23:16:27.118Z,71.33
2022-11-30T23:18:57.395Z,71.63
2022-11-30T23:21:27.328Z,71.95
2022-11-30T23:23:56.482Z,71.69
2022-11-30T23:26:26.401Z,71.87
2022-11-30T23:28:59.536Z,71.65
2022-11-30T23:31:34.099Z,72.05
2022-11-30T23:34:05.900Z,71.78
2022-11-30T23:36:34.167Z,71.90
2022-11-30T23:39:03.788Z,72.02
2022-11-30T23:41:31.798Z,71.68
2022-11-30T23:44:01.524Z,71.38
2022-11-30T23:46:29.708Z,71.97
2022-11-30T23:48:57.807Z,72.94
2022-11-30T23:51:26.120Z,72.88
2022-11-30T23:53:54.768Z,73.15
2022-11-30T23:56:24.330Z,72.96
2022-11-30T23:58:52.827Z,72.72
